KDPG/DPG METAR and TAF weather

Enter ICAO airport designator
Station Type Date Time Source
KDPG METAR 2022/06/28 22:55 UTC NOAA

KDPG 282255Z 15017G24KT 25SM FEW050 BKN150 BKN170 36/01 A3006 RMK PK WND 26028/2155 VIRGA ALQDS SLP121 T03600006 LAST


Station Type Date Time Source
KDPG Decoded METAR 2022/06/28 22:55 UTC NOAA

Dugway Proving Grounds, UT, United States (KDPG) 40-10N 112-56W 1325M
Jun 28, 2022 - 06:55 PM EDT / 2022.06.28 2255 UTC
Wind: from the SSE (150 degrees) at 20 MPH (17 KT) gusting to 28 MPH (24 KT):0
Visibility: 25 mile(s):0
Sky conditions: mostly cloudy
Temperature: 96.8 F (36.0 C)
Dew Point: 33.1 F (0.6 C)
Relative Humidity: 10%
Pressure (altimeter): 30.06 in. Hg (1017 hPa)
ob: KDPG 282255Z 15017G24KT 25SM FEW050 BKN150 BKN170 36/01 A3006 RMK PK WND 26028/2155 VIRGA ALQDS SLP121 T03600006 LAST
cycle: 23

Station Type Date Time Source
KDPG TAF UTC NOAA

Error!

Example: see airport list